Gateway, Arkansas
Current Conditions -  °F | °C
As of 4:57 PM on Saturday 20 Dec 2014 (Local Time) from KROG Reporting Station
Overcast Overcast  
Wind Chill: 38°   Ceiling: 2200
Heat Index: 42°   Visibility: 10mi
Dew Point: 35°   Wind: 6mph
Humidity: 76%   Direction: 200°SSW
Pressure: 30.18"   Gusts: NA
Location:  36.49°N, 93.93°W
Report Text: KROG 202257Z 20005KT 10SM OVC022 06/02 A3018 RMK AO2 SLP226 T00560017
Loading
Personal Weather Stations






























Interactive Weather Map New forecast layout! Learn more

10-Day Weather Forecast

Advertisements
Track Severe Weather on mobile